createdAt,value
2018-10-03T00:01:11.772Z,10.80
2018-10-03T00:03:39.951Z,10.80
2018-10-03T00:06:08.137Z,10.73
2018-10-03T00:08:36.304Z,10.79
2018-10-03T00:11:04.576Z,10.83
2018-10-03T00:13:32.724Z,10.76
2018-10-03T00:16:00.888Z,10.75
2018-10-03T00:18:29.098Z,10.77
2018-10-03T00:20:57.278Z,10.78
2018-10-03T00:23:25.504Z,10.71
2018-10-03T00:25:53.734Z,10.77
2018-10-03T00:28:21.904Z,10.78
2018-10-03T00:30:50.068Z,10.79
2018-10-03T00:33:18.245Z,10.78
2018-10-03T00:35:46.615Z,10.75
2018-10-03T00:38:14.846Z,10.76
2018-10-03T00:40:43.085Z,10.77
2018-10-03T00:43:11.269Z,10.72
2018-10-03T00:45:39.465Z,10.71
2018-10-03T00:48:08.041Z,10.67
2018-10-03T00:50:36.213Z,10.67
2018-10-03T00:53:04.381Z,10.71
2018-10-03T00:55:32.557Z,10.72
2018-10-03T00:58:00.795Z,10.70
2018-10-03T01:00:28.957Z,10.75
2018-10-03T01:02:57.153Z,10.70
2018-10-03T01:05:25.331Z,10.68
2018-10-03T01:07:53.557Z,10.73
2018-10-03T01:10:21.764Z,10.75
2018-10-03T01:12:50.030Z,10.80
2018-10-03T01:15:18.198Z,10.77
2018-10-03T01:17:46.922Z,10.76
2018-10-03T01:20:15.094Z,10.79
2018-10-03T01:22:43.266Z,10.77
2018-10-03T01:25:12.284Z,10.79
2018-10-03T01:27:40.478Z,10.79
2018-10-03T01:31:12.074Z,10.82
2018-10-03T01:33:40.245Z,10.81
2018-10-03T01:36:08.417Z,10.80
2018-10-03T01:38:36.594Z,10.79
2018-10-03T01:41:04.770Z,10.88
2018-10-03T01:43:32.937Z,10.81
2018-10-03T01:46:01.113Z,10.82
2018-10-03T01:48:30.011Z,10.83
2018-10-03T01:50:58.189Z,10.79
2018-10-03T01:53:26.353Z,10.86
2018-10-03T01:55:55.456Z,10.96
2018-10-03T01:58:23.641Z,10.94
2018-10-03T02:00:51.828Z,10.88
2018-10-03T02:03:20.004Z,10.86
2018-10-03T02:05:48.174Z,10.85
2018-10-03T02:08:16.784Z,10.89
2018-10-03T02:10:44.946Z,10.93
2018-10-03T02:13:13.109Z,10.94
2018-10-03T02:15:41.288Z,10.84
2018-10-03T02:18:09.438Z,10.87
2018-10-03T02:20:37.600Z,10.89
2018-10-03T02:23:05.792Z,10.91
2018-10-03T02:25:34.174Z,10.92
2018-10-03T02:28:02.334Z,10.91
2018-10-03T02:30:30.517Z,10.89
2018-10-03T02:32:59.152Z,10.88
2018-10-03T02:35:27.316Z,10.89
2018-10-03T02:37:55.697Z,10.96
2018-10-03T02:40:23.914Z,10.95
2018-10-03T02:42:52.093Z,10.88
2018-10-03T02:45:21.257Z,10.91
2018-10-03T02:47:50.957Z,10.96
2018-10-03T02:50:19.197Z,10.92
2018-10-03T02:52:47.615Z,10.83
2018-10-03T02:55:15.865Z,10.89
2018-10-03T02:57:44.053Z,10.87
2018-10-03T03:00:12.453Z,10.89
2018-10-03T03:02:40.702Z,10.97
2018-10-03T03:05:08.949Z,10.91
2018-10-03T03:07:37.479Z,10.86
2018-10-03T03:10:05.793Z,10.89
2018-10-03T03:12:34.017Z,10.87
2018-10-03T03:15:02.308Z,10.84
2018-10-03T03:17:30.448Z,10.87
2018-10-03T03:19:58.613Z,10.87
2018-10-03T03:22:26.837Z,10.91
2018-10-03T03:24:54.996Z,10.91
2018-10-03T03:27:23.268Z,10.85
2018-10-03T03:29:51.448Z,10.87
2018-10-03T03:32:19.622Z,10.82
2018-10-03T03:34:47.902Z,10.84
2018-10-03T03:37:16.076Z,10.80
2018-10-03T03:39:44.283Z,10.72
2018-10-03T03:42:12.453Z,10.76
2018-10-03T03:44:40.745Z,10.73
2018-10-03T03:47:08.929Z,10.75
2018-10-03T03:49:37.094Z,10.80
2018-10-03T03:52:05.394Z,10.80
2018-10-03T03:54:33.557Z,10.77
2018-10-03T03:57:01.825Z,10.88
2018-10-03T03:59:30.012Z,10.81
2018-10-03T04:01:58.333Z,10.78
2018-10-03T04:04:26.753Z,10.81
2018-10-03T04:06:54.943Z,10.85
2018-10-03T04:09:23.197Z,10.87
2018-10-03T04:11:51.467Z,10.87
2018-10-03T04:14:19.673Z,10.82
2018-10-03T04:16:47.829Z,10.87
2018-10-03T04:19:16.380Z,10.84
2018-10-03T04:21:44.565Z,10.87
2018-10-03T04:24:12.922Z,10.92
2018-10-03T04:26:41.458Z,10.95
2018-10-03T04:29:10.054Z,10.95
2018-10-03T04:31:38.271Z,10.98
2018-10-03T04:34:06.892Z,11.00
2018-10-03T04:36:35.552Z,10.99
2018-10-03T04:39:05.488Z,11.02
2018-10-03T04:41:33.929Z,11.00
2018-10-03T04:44:02.162Z,11.07
2018-10-03T04:46:30.434Z,10.99
2018-10-03T04:48:58.632Z,11.08
2018-10-03T04:51:26.809Z,11.04
2018-10-03T04:53:55.058Z,11.04
2018-10-03T04:56:23.255Z,11.07
2018-10-03T04:58:51.469Z,11.12
2018-10-03T05:01:19.636Z,11.09
2018-10-03T05:03:47.793Z,11.06
2018-10-03T05:06:15.981Z,11.06
2018-10-03T05:08:44.149Z,11.05
2018-10-03T05:11:12.445Z,11.12
2018-10-03T05:13:40.564Z,11.04
2018-10-03T05:16:08.883Z,11.06
2018-10-03T05:18:37.106Z,11.06
2018-10-03T05:21:05.335Z,11.13
2018-10-03T05:23:33.515Z,11.12
2018-10-03T05:26:01.736Z,11.10
2018-10-03T05:28:30.015Z,11.14
2018-10-03T05:30:58.320Z,11.19
2018-10-03T05:33:27.185Z,11.16
2018-10-03T05:35:55.312Z,11.14
2018-10-03T05:38:23.548Z,11.17
2018-10-03T05:40:51.792Z,11.20
2018-10-03T05:43:20.080Z,11.20
2018-10-03T05:45:48.256Z,11.25
2018-10-03T05:48:16.436Z,11.25
2018-10-03T05:50:44.756Z,11.27
2018-10-03T05:53:12.922Z,11.34
2018-10-03T05:55:41.162Z,11.34
2018-10-03T05:58:09.874Z,11.40
2018-10-03T06:00:38.118Z,11.42
2018-10-03T06:03:06.286Z,11.51
2018-10-03T06:05:34.510Z,11.50
2018-10-03T06:08:02.712Z,11.59
2018-10-03T06:10:30.894Z,11.66
2018-10-03T06:12:59.104Z,11.71
2018-10-03T06:15:27.461Z,11.69
2018-10-03T06:17:56.045Z,11.73
2018-10-03T06:20:24.265Z,11.78
2018-10-03T06:22:52.498Z,11.83
2018-10-03T06:25:21.585Z,11.94
2018-10-03T06:27:50.009Z,11.99
2018-10-03T06:30:18.520Z,12.04
2018-10-03T06:32:46.752Z,12.02
2018-10-03T06:35:15.594Z,12.01
2018-10-03T06:37:43.791Z,11.94
2018-10-03T06:40:11.947Z,12.01
2018-10-03T06:42:40.517Z,12.10
2018-10-03T06:45:08.706Z,12.30
2018-10-03T06:47:36.889Z,12.52
2018-10-03T06:50:05.110Z,12.49
2018-10-03T06:52:33.350Z,12.42
2018-10-03T06:55:01.522Z,12.34
2018-10-03T06:57:30.236Z,12.38
2018-10-03T06:59:58.417Z,12.50
2018-10-03T07:02:26.635Z,12.56
2018-10-03T07:04:54.829Z,12.55
2018-10-03T07:07:23.125Z,12.59
2018-10-03T07:09:51.496Z,12.78
2018-10-03T07:12:19.737Z,12.68
2018-10-03T07:14:47.889Z,12.82
2018-10-03T07:17:16.097Z,12.74
2018-10-03T07:19:44.408Z,12.59
2018-10-03T07:22:12.595Z,12.67
2018-10-03T07:24:40.777Z,12.68
2018-10-03T07:27:09.037Z,12.64
2018-10-03T07:29:37.269Z,12.70
2018-10-03T07:32:05.438Z,12.70
2018-10-03T07:34:33.888Z,12.71
2018-10-03T07:37:02.116Z,12.83
2018-10-03T07:39:30.321Z,12.89
2018-10-03T07:41:58.625Z,12.81
2018-10-03T07:44:26.818Z,12.90
2018-10-03T07:46:55.184Z,12.90
2018-10-03T07:49:23.413Z,13.09
2018-10-03T07:51:51.727Z,12.97
2018-10-03T07:54:19.982Z,13.18
2018-10-03T07:56:48.284Z,13.13
2018-10-03T07:59:16.432Z,13.35
2018-10-03T08:01:44.672Z,13.29
2018-10-03T08:04:12.855Z,13.34
2018-10-03T08:06:41.320Z,13.14
2018-10-03T08:09:10.480Z,13.10
2018-10-03T08:11:38.762Z,13.36
2018-10-03T08:14:08.050Z,13.59
2018-10-03T08:16:36.264Z,13.70
2018-10-03T08:19:04.522Z,13.65
2018-10-03T08:21:33.005Z,13.70
2018-10-03T08:24:01.269Z,13.58
2018-10-03T08:26:30.401Z,13.59
2018-10-03T08:28:58.662Z,13.33
2018-10-03T08:31:26.909Z,13.37
2018-10-03T08:33:55.185Z,13.59
2018-10-03T08:36:23.349Z,13.71
2018-10-03T08:38:51.638Z,13.82
2018-10-03T08:41:20.805Z,13.99
2018-10-03T08:43:49.061Z,13.95
2018-10-03T08:46:17.253Z,14.03
2018-10-03T08:48:47.401Z,14.33
2018-10-03T08:51:15.583Z,14.42
2018-10-03T08:53:43.732Z,14.06
2018-10-03T08:56:11.989Z,14.24
2018-10-03T08:58:40.253Z,14.30
2018-10-03T09:01:08.350Z,14.30
2018-10-03T09:03:36.840Z,14.45
2018-10-03T09:06:05.029Z,14.39
2018-10-03T09:08:33.222Z,13.94
2018-10-03T09:11:01.793Z,13.95
2018-10-03T09:13:29.953Z,14.04
2018-10-03T09:15:59.913Z,14.20
2018-10-03T09:18:28.332Z,14.60
2018-10-03T09:20:56.504Z,14.66
2018-10-03T09:23:24.753Z,14.94
2018-10-03T09:25:52.947Z,14.55
2018-10-03T09:28:21.118Z,14.52
2018-10-03T09:30:49.729Z,14.70
2018-10-03T09:33:18.218Z,14.78
2018-10-03T09:35:47.281Z,15.00
2018-10-03T09:38:15.467Z,15.05
2018-10-03T09:40:43.953Z,14.95
2018-10-03T09:43:12.595Z,15.00
2018-10-03T09:45:40.781Z,15.26
2018-10-03T09:48:08.985Z,15.15
2018-10-03T09:50:37.726Z,15.32
2018-10-03T09:53:05.973Z,15.21
2018-10-03T09:55:34.213Z,15.06
2018-10-03T09:58:02.444Z,15.38
2018-10-03T10:00:35.985Z,15.63
2018-10-03T10:03:04.188Z,16.08
2018-10-03T10:05:32.358Z,16.50
2018-10-03T10:08:00.563Z,16.44
2018-10-03T10:10:28.778Z,16.33
2018-10-03T10:12:56.973Z,16.31
2018-10-03T10:15:25.159Z,16.28
2018-10-03T10:17:53.317Z,16.64
2018-10-03T10:20:21.568Z,16.86
2018-10-03T10:22:50.617Z,17.19
2018-10-03T10:25:19.027Z,17.95
2018-10-03T10:27:48.617Z,17.56
2018-10-03T10:30:16.855Z,17.33
2018-10-03T10:32:45.229Z,18.03
2018-10-03T10:35:13.761Z,17.66
2018-10-03T10:37:41.969Z,17.65
2018-10-03T10:40:10.651Z,17.31
2018-10-03T10:42:38.895Z,17.00
2018-10-03T10:45:07.305Z,18.38
2018-10-03T10:47:35.569Z,19.12
2018-10-03T10:50:03.886Z,18.90
2018-10-03T10:52:32.028Z,18.60
2018-10-03T10:55:00.221Z,20.01
2018-10-03T10:57:28.482Z,19.60
2018-10-03T10:59:56.676Z,20.83
2018-10-03T11:02:24.922Z,22.88
2018-10-03T11:04:53.150Z,23.34
2018-10-03T11:07:21.406Z,22.44
2018-10-03T11:09:49.668Z,23.17
2018-10-03T11:12:17.818Z,22.15
2018-10-03T11:14:45.989Z,21.96
2018-10-03T11:17:14.180Z,22.77
2018-10-03T11:19:42.443Z,22.35
2018-10-03T11:22:10.636Z,21.28
2018-10-03T11:24:39.166Z,20.10
2018-10-03T11:27:07.274Z,20.63
2018-10-03T11:29:35.480Z,20.27
2018-10-03T11:32:03.772Z,20.84
2018-10-03T11:34:31.894Z,21.25
2018-10-03T11:37:00.117Z,20.42
2018-10-03T11:39:28.295Z,20.57
2018-10-03T11:41:56.472Z,19.95
2018-10-03T11:44:24.696Z,22.10
2018-10-03T11:46:52.863Z,23.32
2018-10-03T11:49:21.029Z,22.97
2018-10-03T11:51:49.646Z,24.58
2018-10-03T11:54:17.812Z,25.82
2018-10-03T11:56:46.033Z,27.11
2018-10-03T11:59:14.268Z,27.85
2018-10-03T12:01:42.479Z,28.53
2018-10-03T12:04:10.632Z,29.22
2018-10-03T12:06:38.983Z,30.24
2018-10-03T12:09:09.567Z,28.17
2018-10-03T12:11:37.814Z,26.40
2018-10-03T12:14:06.000Z,28.86
2018-10-03T12:16:34.246Z,28.50
2018-10-03T12:19:02.486Z,29.65
2018-10-03T12:21:30.823Z,30.47
2018-10-03T12:23:59.019Z,30.69
2018-10-03T12:26:27.242Z,27.84
2018-10-03T12:28:55.554Z,29.56
2018-10-03T12:31:24.417Z,30.83
2018-10-03T12:33:52.686Z,31.09
2018-10-03T12:36:20.805Z,30.73
2018-10-03T12:38:49.273Z,30.51
2018-10-03T12:41:17.465Z,29.08
2018-10-03T12:43:45.699Z,28.89
2018-10-03T12:46:13.893Z,30.08
2018-10-03T12:48:43.829Z,29.12
2018-10-03T12:51:12.107Z,29.78
2018-10-03T12:53:40.276Z,30.73
2018-10-03T12:56:08.465Z,27.59
2018-10-03T12:58:36.756Z,25.57
2018-10-03T13:01:04.978Z,27.97
2018-10-03T13:03:33.219Z,28.78
2018-10-03T13:06:02.702Z,30.90
2018-10-03T13:08:30.869Z,31.63
2018-10-03T13:10:59.231Z,32.09
2018-10-03T13:13:27.434Z,30.64
2018-10-03T13:15:55.628Z,29.86
2018-10-03T13:18:23.794Z,31.09
2018-10-03T13:20:51.980Z,28.30
2018-10-03T13:23:20.392Z,26.21
2018-10-03T13:25:48.665Z,24.25
2018-10-03T13:28:16.842Z,25.03
2018-10-03T13:30:45.095Z,25.60
2018-10-03T13:33:13.197Z,22.73
2018-10-03T13:35:41.438Z,22.22
2018-10-03T13:38:09.601Z,20.37
2018-10-03T13:40:37.828Z,19.70
2018-10-03T13:43:06.152Z,19.41
2018-10-03T13:45:34.368Z,20.60
2018-10-03T13:48:02.592Z,21.28
2018-10-03T13:50:30.788Z,20.67
2018-10-03T13:52:58.989Z,20.24
2018-10-03T13:55:27.183Z,19.69
2018-10-03T13:57:55.382Z,19.24
2018-10-03T14:00:23.572Z,19.06
2018-10-03T14:02:51.765Z,21.89
2018-10-03T14:05:20.021Z,24.96
2018-10-03T14:07:48.187Z,25.81
2018-10-03T14:10:16.357Z,26.73
2018-10-03T14:12:44.781Z,25.47
2018-10-03T14:15:12.981Z,26.29
2018-10-03T14:17:41.189Z,25.12
2018-10-03T14:20:09.377Z,23.97
2018-10-03T14:22:37.529Z,24.67
2018-10-03T14:25:06.181Z,25.57
2018-10-03T14:27:34.422Z,24.82
2018-10-03T14:30:02.674Z,23.26
2018-10-03T14:32:30.836Z,24.60
2018-10-03T14:34:59.039Z,24.03
2018-10-03T14:37:27.201Z,22.92
2018-10-03T14:39:55.508Z,21.10
2018-10-03T14:42:23.646Z,20.09
2018-10-03T14:44:51.825Z,19.56
2018-10-03T14:47:19.997Z,19.88
2018-10-03T14:49:48.222Z,19.78
2018-10-03T14:52:16.504Z,19.92
2018-10-03T14:54:44.761Z,19.56
2018-10-03T14:57:13.178Z,19.46
2018-10-03T14:59:41.486Z,19.78
2018-10-03T15:02:09.865Z,19.13
2018-10-03T15:04:38.065Z,18.76
2018-10-03T15:07:06.668Z,18.31
2018-10-03T15:09:34.825Z,17.85
2018-10-03T15:12:03.013Z,17.59
2018-10-03T15:14:31.193Z,17.54
2018-10-03T15:16:59.349Z,17.81
2018-10-03T15:19:27.529Z,17.48
2018-10-03T15:21:55.688Z,17.41
2018-10-03T15:24:23.904Z,17.49
2018-10-03T15:26:52.057Z,17.37
2018-10-03T15:29:20.242Z,17.54
2018-10-03T15:31:48.388Z,17.53
2018-10-03T15:34:16.589Z,17.51
2018-10-03T15:36:44.777Z,17.36
2018-10-03T15:39:12.952Z,17.25
2018-10-03T15:41:41.119Z,17.13
2018-10-03T15:44:09.286Z,17.06
2018-10-03T15:46:37.499Z,16.83
2018-10-03T15:49:05.698Z,16.67
2018-10-03T15:51:33.894Z,16.38
2018-10-03T15:54:02.142Z,16.37
2018-10-03T15:56:30.381Z,16.16
2018-10-03T15:58:58.561Z,15.98
2018-10-03T16:01:26.751Z,15.88
2018-10-03T16:03:54.943Z,15.73
2018-10-03T16:06:23.202Z,15.67
2018-10-03T16:08:51.393Z,15.47
2018-10-03T16:11:19.569Z,15.34
2018-10-03T16:13:47.889Z,15.15
2018-10-03T16:16:16.119Z,15.01
2018-10-03T16:18:44.389Z,14.87
2018-10-03T16:21:12.609Z,14.76
2018-10-03T16:23:40.765Z,14.68
2018-10-03T16:26:09.285Z,14.57
2018-10-03T16:28:37.513Z,14.45
2018-10-03T16:31:05.858Z,14.30
2018-10-03T16:33:34.053Z,14.12
2018-10-03T16:36:02.308Z,14.06
2018-10-03T16:38:30.496Z,14.00
2018-10-03T16:40:58.715Z,13.85
2018-10-03T16:43:26.891Z,13.73
2018-10-03T16:45:55.227Z,13.60
2018-10-03T16:48:24.578Z,13.44
2018-10-03T16:50:53.103Z,13.32
2018-10-03T16:53:21.290Z,13.20
2018-10-03T16:55:49.458Z,13.15
2018-10-03T16:58:17.617Z,13.12
2018-10-03T17:00:45.849Z,13.09
2018-10-03T17:03:14.125Z,13.17
2018-10-03T17:05:42.297Z,13.22
2018-10-03T17:08:10.486Z,13.28
2018-10-03T17:10:38.661Z,13.30
2018-10-03T17:13:06.874Z,13.30
2018-10-03T17:15:35.158Z,13.22
2018-10-03T17:18:03.369Z,13.19
2018-10-03T17:20:31.530Z,13.18
2018-10-03T17:22:59.737Z,13.23
2018-10-03T17:25:27.973Z,13.29
2018-10-03T17:27:56.137Z,13.29
2018-10-03T17:30:24.541Z,13.30
2018-10-03T17:32:54.839Z,13.23
2018-10-03T17:35:23.354Z,13.15
2018-10-03T17:37:51.966Z,13.09
2018-10-03T17:40:20.344Z,13.09
2018-10-03T17:42:48.574Z,13.06
2018-10-03T17:45:16.778Z,13.02
2018-10-03T17:47:44.960Z,13.03
2018-10-03T17:50:13.360Z,13.04
2018-10-03T17:52:41.528Z,13.04
2018-10-03T17:55:09.850Z,12.96
2018-10-03T17:57:40.032Z,12.81
2018-10-03T18:00:08.688Z,12.74
2018-10-03T18:02:36.890Z,12.70
2018-10-03T18:05:05.349Z,12.60
2018-10-03T18:07:33.423Z,12.63
2018-10-03T18:10:01.606Z,12.49
2018-10-03T18:12:29.793Z,12.50
2018-10-03T18:14:57.961Z,12.43
2018-10-03T18:17:26.160Z,12.36
2018-10-03T18:19:54.440Z,12.32
2018-10-03T18:22:22.726Z,12.35
2018-10-03T18:24:51.027Z,12.39
2018-10-03T18:27:19.305Z,12.34
2018-10-03T18:29:48.145Z,12.25
2018-10-03T18:32:16.417Z,12.21
2018-10-03T18:34:44.915Z,12.11
2018-10-03T18:37:13.191Z,12.05
2018-10-03T18:39:41.409Z,11.94
2018-10-03T18:42:09.549Z,11.86
2018-10-03T18:44:37.759Z,12.06
2018-10-03T18:47:06.102Z,11.98
2018-10-03T18:49:34.263Z,11.94
2018-10-03T18:52:02.532Z,11.91
2018-10-03T18:54:30.698Z,11.79
2018-10-03T18:56:58.870Z,11.85
2018-10-03T18:59:27.098Z,11.81
2018-10-03T19:01:55.371Z,11.59
2018-10-03T19:04:23.610Z,11.52
2018-10-03T19:06:51.872Z,11.71
2018-10-03T19:09:20.098Z,11.75
2018-10-03T19:11:48.516Z,11.72
2018-10-03T19:14:16.799Z,11.70
2018-10-03T19:16:45.123Z,11.68
2018-10-03T19:19:13.378Z,11.60
2018-10-03T19:21:41.670Z,11.54
2018-10-03T19:24:09.860Z,11.56
2018-10-03T19:26:38.045Z,11.61
2018-10-03T19:29:06.259Z,11.67
2018-10-03T19:31:34.541Z,11.79
2018-10-03T19:34:02.761Z,11.66
2018-10-03T19:36:30.984Z,11.55
2018-10-03T19:38:59.179Z,11.54
2018-10-03T19:41:27.424Z,11.49
2018-10-03T19:43:55.694Z,11.55
2018-10-03T19:46:23.897Z,11.46
2018-10-03T19:48:52.156Z,11.42
2018-10-03T19:51:20.374Z,11.33
2018-10-03T19:53:48.838Z,11.29
2018-10-03T19:56:17.008Z,11.48
2018-10-03T19:58:45.284Z,11.37
2018-10-03T20:01:17.536Z,11.42
2018-10-03T20:03:45.731Z,11.32
2018-10-03T20:06:14.516Z,11.19
2018-10-03T20:08:42.904Z,11.13
2018-10-03T20:11:11.117Z,10.96
2018-10-03T20:13:39.565Z,10.78
2018-10-03T20:16:07.888Z,10.60
2018-10-03T20:18:36.081Z,10.54
2018-10-03T20:21:04.467Z,10.40
2018-10-03T20:23:32.579Z,10.31
2018-10-03T20:26:00.761Z,10.22
2018-10-03T20:28:28.974Z,10.08
2018-10-03T20:30:57.177Z,10.01
2018-10-03T20:33:25.380Z,10.01
2018-10-03T20:35:53.601Z,10.11
2018-10-03T20:38:21.789Z,10.32
2018-10-03T20:40:49.993Z,10.56
2018-10-03T20:43:18.225Z,10.65
2018-10-03T20:45:46.419Z,10.84
2018-10-03T20:48:14.716Z,10.65
2018-10-03T20:50:42.853Z,10.49
2018-10-03T20:53:11.401Z,10.34
2018-10-03T20:55:39.612Z,10.18
2018-10-03T20:58:07.783Z,10.04
2018-10-03T21:00:36.027Z,9.94
2018-10-03T21:03:04.249Z,9.89
2018-10-03T21:05:32.428Z,9.85
2018-10-03T21:08:00.608Z,9.82
2018-10-03T21:10:28.785Z,9.78
2018-10-03T21:12:57.039Z,9.77
2018-10-03T21:15:26.248Z,9.74
2018-10-03T21:17:54.512Z,9.70
2018-10-03T21:20:22.776Z,9.69
2018-10-03T21:22:51.106Z,9.65
2018-10-03T21:25:19.265Z,9.60
2018-10-03T21:27:47.428Z,9.56
2018-10-03T21:30:15.658Z,9.53
2018-10-03T21:32:43.810Z,9.53
2018-10-03T21:35:11.977Z,9.52
2018-10-03T21:37:40.185Z,9.49
2018-10-03T21:40:08.402Z,9.46
2018-10-03T21:42:36.649Z,9.41
2018-10-03T21:45:04.930Z,9.44
2018-10-03T21:47:33.121Z,9.41
2018-10-03T21:50:01.285Z,9.30
2018-10-03T21:52:29.469Z,9.24
2018-10-03T21:54:57.725Z,9.20
2018-10-03T21:57:25.899Z,9.13
2018-10-03T21:59:54.091Z,9.02
2018-10-03T22:02:22.277Z,8.95
2018-10-03T22:04:50.461Z,8.90
2018-10-03T22:07:18.661Z,8.85
2018-10-03T22:09:46.887Z,8.83
2018-10-03T22:12:15.066Z,8.78
2018-10-03T22:14:43.336Z,8.76
2018-10-03T22:17:25.960Z,8.77
2018-10-03T22:19:55.602Z,8.81
2018-10-03T22:22:23.845Z,8.86
2018-10-03T22:24:52.220Z,8.88
2018-10-03T22:27:20.389Z,8.91
2018-10-03T22:29:48.673Z,8.92
2018-10-03T22:32:16.815Z,8.92
2018-10-03T22:34:44.998Z,8.91
2018-10-03T22:37:13.166Z,8.94
2018-10-03T22:39:41.960Z,8.96
2018-10-03T22:42:10.310Z,8.95
2018-10-03T22:44:38.509Z,8.92
2018-10-03T22:47:06.942Z,8.89
2018-10-03T22:49:35.158Z,8.85
2018-10-03T22:52:03.370Z,8.83
2018-10-03T22:54:31.538Z,8.79
2018-10-03T22:57:00.042Z,8.76
2018-10-03T22:59:28.193Z,8.74
2018-10-03T23:01:56.610Z,8.72
2018-10-03T23:04:24.993Z,8.69
2018-10-03T23:06:53.149Z,8.68
2018-10-03T23:09:21.311Z,8.69
2018-10-03T23:11:49.493Z,8.66
2018-10-03T23:14:17.653Z,8.66
2018-10-03T23:16:45.877Z,8.74
2018-10-03T23:19:14.065Z,8.83
2018-10-03T23:21:42.344Z,8.83
2018-10-03T23:24:10.524Z,8.83
2018-10-03T23:26:38.698Z,8.89
2018-10-03T23:29:06.872Z,8.90
2018-10-03T23:31:35.200Z,8.90
2018-10-03T23:34:03.399Z,8.89
2018-10-03T23:36:31.647Z,8.92
2018-10-03T23:38:59.813Z,8.90
2018-10-03T23:41:28.059Z,8.86
2018-10-03T23:43:56.315Z,8.78
2018-10-03T23:46:24.493Z,8.70
2018-10-03T23:48:52.677Z,8.64
2018-10-03T23:51:20.845Z,8.56
2018-10-03T23:53:49.013Z,8.52
2018-10-03T23:56:17.213Z,8.49
2018-10-03T23:58:45.373Z,8.46
